sensor_id;sensor_type;location;lat;lon;timestamp;pressure;altitude;pressure_sealevel;temperature;humidity
77517;BME280;68414;53.946;27.634;2023-06-10T00:00:57;99193.257812;;;15.760000;52.158203
77517;BME280;68414;53.946;27.634;2023-06-10T00:01:57;99185.648438;;;15.700000;51.985352
77517;BME280;68414;53.946;27.634;2023-06-10T00:02:57;99186.695312;;;15.580000;51.531250
77517;BME280;68414;53.946;27.634;2023-06-10T00:03:57;99185.976562;;;15.650000;51.726562
77517;BME280;68414;53.946;27.634;2023-06-10T00:04:57;99189.054688;;;15.560000;51.517578
77517;BME280;68414;53.946;27.634;2023-06-10T00:05:57;99183.531250;;;15.600000;52.634766
77517;BME280;68414;53.946;27.634;2023-06-10T00:06:57;99189.890625;;;15.600000;52.095703
77517;BME280;68414;53.946;27.634;2023-06-10T00:07:57;99183.500000;;;15.560000;51.506836
77517;BME280;68414;53.946;27.634;2023-06-10T00:08:57;99193.804688;;;15.560000;52.001953
77517;BME280;68414;53.946;27.634;2023-06-10T00:09:57;99192.218750;;;15.550000;51.340820
77517;BME280;68414;53.946;27.634;2023-06-10T00:10:57;99185.140625;;;15.610000;51.611328
77517;BME280;68414;53.946;27.634;2023-06-10T00:11:57;99193.828125;;;15.590000;50.848633
77517;BME280;68414;53.946;27.634;2023-06-10T00:12:57;99188.664062;;;15.580000;51.276367
77517;BME280;68414;53.946;27.634;2023-06-10T00:13:57;99194.640625;;;15.600000;51.301758
77517;BME280;68414;53.946;27.634;2023-06-10T00:14:57;99198.609375;;;15.590000;51.201172
77517;BME280;68414;53.946;27.634;2023-06-10T00:15:57;99199.359375;;;15.560000;50.955078
77517;BME280;68414;53.946;27.634;2023-06-10T00:16:57;99202.609375;;;15.610000;51.181641
77517;BME280;68414;53.946;27.634;2023-06-10T00:17:57;99198.609375;;;15.590000;51.995117
77517;BME280;68414;53.946;27.634;2023-06-10T00:18:58;99201.328125;;;15.550000;50.955078
77517;BME280;68414;53.946;27.634;2023-06-10T00:19:57;99198.843750;;;15.470000;50.868164
77517;BME280;68414;53.946;27.634;2023-06-10T00:20:57;99195.710938;;;15.480000;50.692383
77517;BME280;68414;53.946;27.634;2023-06-10T00:21:57;99196.156250;;;15.540000;51.283203
77517;BME280;68414;53.946;27.634;2023-06-10T00:22:59;99193.406250;;;15.570000;51.409180
77517;BME280;68414;53.946;27.634;2023-06-10T00:23:57;99187.828125;;;15.540000;50.997070
77517;BME280;68414;53.946;27.634;2023-06-10T00:24:57;99188.218750;;;15.520000;50.643555
77517;BME280;68414;53.946;27.634;2023-06-10T00:26:57;99189.343750;;;15.480000;51.056641
77517;BME280;68414;53.946;27.634;2023-06-10T00:27:57;99192.062500;;;15.440000;50.060547
77517;BME280;68414;53.946;27.634;2023-06-10T00:28:57;99197.976562;;;15.430000;50.223633
77517;BME280;68414;53.946;27.634;2023-06-10T00:29:57;99196.453125;;;15.450000;51.041992
77517;BME280;68414;53.946;27.634;2023-06-10T00:30:57;99203.171875;;;15.440000;49.916992
77517;BME280;68414;53.946;27.634;2023-06-10T00:31:59;99192.875000;;;15.450000;50.380859
77517;BME280;68414;53.946;27.634;2023-06-10T00:32:57;99186.835938;;;15.390000;49.955078
77517;BME280;68414;53.946;27.634;2023-06-10T00:33:57;99196.718750;;;15.370000;49.754883
77517;BME280;68414;53.946;27.634;2023-06-10T00:34:57;99189.093750;;;15.300000;49.868164
77517;BME280;68414;53.946;27.634;2023-06-10T00:35:57;99188.671875;;;15.280000;50.229492
77517;BME280;68414;53.946;27.634;2023-06-10T00:36:57;99191.062500;;;15.300000;49.823242
77517;BME280;68414;53.946;27.634;2023-06-10T00:37:57;99188.421875;;;15.400000;49.593750
77517;BME280;68414;53.946;27.634;2023-06-10T00:38:57;99186.351562;;;15.340000;50.500977
77517;BME280;68414;53.946;27.634;2023-06-10T00:39:57;99180.859375;;;15.370000;51.142578
77517;BME280;68414;53.946;27.634;2023-06-10T00:40:57;99184.062500;;;15.390000;51.012695
77517;BME280;68414;53.946;27.634;2023-06-10T00:41:58;99180.765625;;;15.300000;49.659180
77517;BME280;68414;53.946;27.634;2023-06-10T00:42:57;99179.125000;;;15.260000;49.510742
77517;BME280;68414;53.946;27.634;2023-06-10T00:43:57;99188.289062;;;15.300000;50.407227
77517;BME280;68414;53.946;27.634;2023-06-10T00:44:57;99183.023438;;;15.210000;50.000977
77517;BME280;68414;53.946;27.634;2023-06-10T00:45:57;99179.859375;;;15.230000;50.465820
77517;BME280;68414;53.946;27.634;2023-06-10T00:46:57;99180.210938;;;15.170000;49.436523
77517;BME280;68414;53.946;27.634;2023-06-10T00:47:57;99185.703125;;;15.140000;49.695312
77517;BME280;68414;53.946;27.634;2023-06-10T00:48:57;99186.117188;;;15.160000;49.895508
77517;BME280;68414;53.946;27.634;2023-06-10T00:49:57;99184.578125;;;15.180000;49.501953
77517;BME280;68414;53.946;27.634;2023-06-10T00:50:57;99190.507812;;;15.170000;50.041016
77517;BME280;68414;53.946;27.634;2023-06-10T00:51:57;99185.375000;;;15.190000;49.767578
77517;BME280;68414;53.946;27.634;2023-06-10T00:52:58;99183.828125;;;15.220000;49.891602
77517;BME280;68414;53.946;27.634;2023-06-10T00:53:57;99180.210938;;;15.170000;49.843750
77517;BME280;68414;53.946;27.634;2023-06-10T00:54:57;99191.250000;;;15.140000;49.364258
77517;BME280;68414;53.946;27.634;2023-06-10T00:55:57;99183.171875;;;15.020000;49.329102
77517;BME280;68414;53.946;27.634;2023-06-10T00:56:57;99187.984375;;;15.050000;50.797852
77517;BME280;68414;53.946;27.634;2023-06-10T00:57:57;99177.234375;;;15.030000;50.135742
77517;BME280;68414;53.946;27.634;2023-06-10T00:58:57;99177.296875;;;15.070000;50.469727
77517;BME280;68414;53.946;27.634;2023-06-10T00:59:57;99182.851562;;;15.070000;50.139648
77517;BME280;68414;53.946;27.634;2023-06-10T01:00:57;99183.625000;;;15.070000;49.733398
77517;BME280;68414;53.946;27.634;2023-06-10T01:01:57;99186.750000;;;15.020000;49.870117
77517;BME280;68414;53.946;27.634;2023-06-10T01:02:57;99184.437500;;;15.080000;50.635742
77517;BME280;68414;53.946;27.634;2023-06-10T01:03:57;99184.437500;;;15.080000;50.272461
77517;BME280;68414;53.946;27.634;2023-06-10T01:04:57;99190.796875;;;15.080000;50.119141
77517;BME280;68414;53.946;27.634;2023-06-10T01:05:58;99176.953125;;;15.120000;50.530273
77517;BME280;68414;53.946;27.634;2023-06-10T01:07:00;99187.531250;;;15.030000;49.915039
77517;BME280;68414;53.946;27.634;2023-06-10T01:09:01;99197.007812;;;14.980000;49.480469
77517;BME280;68414;53.946;27.634;2023-06-10T01:10:57;99191.765625;;;14.930000;49.903320
77517;BME280;68414;53.946;27.634;2023-06-10T01:11:59;99193.000000;;;14.960000;49.730469
77517;BME280;68414;53.946;27.634;2023-06-10T01:13:57;99196.304688;;;15.050000;50.291016
77517;BME280;68414;53.946;27.634;2023-06-10T01:14:57;99195.609375;;;15.110000;50.486328
77517;BME280;68414;53.946;27.634;2023-06-10T01:15:57;99196.453125;;;15.150000;49.961914
77517;BME280;68414;53.946;27.634;2023-06-10T01:16:57;99199.156250;;;15.120000;50.342773
77517;BME280;68414;53.946;27.634;2023-06-10T01:18:02;99199.539062;;;15.100000;49.185547
77517;BME280;68414;53.946;27.634;2023-06-10T01:18:57;99199.078125;;;15.050000;49.201172
77517;BME280;68414;53.946;27.634;2023-06-10T01:19:57;99206.109375;;;14.990000;49.216797
77517;BME280;68414;53.946;27.634;2023-06-10T01:20:57;99204.453125;;;14.940000;48.980469
77517;BME280;68414;53.946;27.634;2023-06-10T01:21:57;99206.343750;;;14.870000;49.852539
77517;BME280;68414;53.946;27.634;2023-06-10T01:23:01;99207.500000;;;14.860000;49.190430
77517;BME280;68414;53.946;27.634;2023-06-10T01:23:57;99216.703125;;;14.900000;50.516602
77517;BME280;68414;53.946;27.634;2023-06-10T01:24:57;99213.546875;;;14.910000;49.174805
77517;BME280;68414;53.946;27.634;2023-06-10T01:26:00;99203.953125;;;14.850000;48.860352
77517;BME280;68414;53.946;27.634;2023-06-10T01:26:57;99211.078125;;;14.860000;49.279297
77517;BME280;68414;53.946;27.634;2023-06-10T01:28:58;99215.093750;;;14.890000;49.260742
77517;BME280;68414;53.946;27.634;2023-06-10T01:32:57;99222.250000;;;14.900000;49.459961
77517;BME280;68414;53.946;27.634;2023-06-10T01:33:57;99228.578125;;;14.900000;49.746094
77517;BME280;68414;53.946;27.634;2023-06-10T01:34:57;99229.882812;;;14.960000;50.623047
77517;BME280;68414;53.946;27.634;2023-06-10T01:35:57;99227.421875;;;14.910000;49.009766
77517;BME280;68414;53.946;27.634;2023-06-10T01:36:57;99227.304688;;;14.840000;49.045898
77517;BME280;68414;53.946;27.634;2023-06-10T01:37:57;99228.109375;;;14.850000;49.267578
77517;BME280;68414;53.946;27.634;2023-06-10T01:38:57;99219.789062;;;14.850000;48.958984
77517;BME280;68414;53.946;27.634;2023-06-10T01:39:57;99226.453125;;;14.800000;48.755859
77517;BME280;68414;53.946;27.634;2023-06-10T01:40:57;99219.632812;;;14.740000;48.749023
77517;BME280;68414;53.946;27.634;2023-06-10T01:41:57;99226.882812;;;14.820000;49.198242
77517;BME280;68414;53.946;27.634;2023-06-10T01:42:57;99230.078125;;;14.840000;49.916016
77517;BME280;68414;53.946;27.634;2023-06-10T01:43:57;99224.914062;;;14.830000;48.856445
77517;BME280;68414;53.946;27.634;2023-06-10T01:44:57;99228.921875;;;14.850000;48.706055
77517;BME280;68414;53.946;27.634;2023-06-10T01:45:57;99231.312500;;;14.870000;48.839844
77517;BME280;68414;53.946;27.634;2023-06-10T01:46:57;99228.039062;;;14.810000;49.867188
77517;BME280;68414;53.946;27.634;2023-06-10T01:47:57;99229.921875;;;14.740000;48.625977
77517;BME280;68414;53.946;27.634;2023-06-10T01:48:57;99233.851562;;;14.730000;49.627930
77517;BME280;68414;53.946;27.634;2023-06-10T01:49:57;99228.687500;;;14.710000;49.482422
77517;BME280;68414;53.946;27.634;2023-06-10T01:50:57;99227.406250;;;14.650000;49.134766
77517;BME280;68414;53.946;27.634;2023-06-10T01:51:57;99233.078125;;;14.720000;49.704102
77517;BME280;68414;53.946;27.634;2023-06-10T01:52:58;99234.234375;;;14.710000;49.285156
77517;BME280;68414;53.946;27.634;2023-06-10T01:53:57;99240.281250;;;14.770000;49.719727
77517;BME280;68414;53.946;27.634;2023-06-10T01:54:57;99238.968750;;;14.710000;48.953125
77517;BME280;68414;53.946;27.634;2023-06-10T01:55:57;99236.578125;;;14.690000;48.401367
77517;BME280;68414;53.946;27.634;2023-06-10T01:56:57;99232.828125;;;14.580000;48.631836
77517;BME280;68414;53.946;27.634;2023-06-10T01:57:57;99253.859375;;;14.590000;48.841797
77517;BME280;68414;53.946;27.634;2023-06-10T01:58:57;99244.429688;;;14.640000;49.331055
77517;BME280;68414;53.946;27.634;2023-06-10T01:59:57;99248.867188;;;14.680000;49.414062
77517;BME280;68414;53.946;27.634;2023-06-10T02:00:57;99252.796875;;;14.670000;48.707031
77517;BME280;68414;53.946;27.634;2023-06-10T02:01:57;99255.187500;;;14.690000;49.193359
77517;BME280;68414;53.946;27.634;2023-06-10T02:02:57;99249.718750;;;14.720000;49.077148
77517;BME280;68414;53.946;27.634;2023-06-10T02:03:57;99251.687500;;;14.720000;48.448242
77517;BME280;68414;53.946;27.634;2023-06-10T02:04:57;99257.281250;;;14.750000;49.278320
77517;BME280;68414;53.946;27.634;2023-06-10T02:05:57;99255.359375;;;14.790000;49.083984
77517;BME280;68414;53.946;27.634;2023-06-10T02:06:57;99258.554688;;;14.810000;49.581055
77517;BME280;68414;53.946;27.634;2023-06-10T02:07:57;99257.351562;;;14.790000;49.292969
77517;BME280;68414;53.946;27.634;2023-06-10T02:08:57;99254.195312;;;14.800000;49.273438
77517;BME280;68414;53.946;27.634;2023-06-10T02:09:57;99256.234375;;;14.830000;48.747070
77517;BME280;68414;53.946;27.634;2023-06-10T02:10:57;99262.218750;;;14.850000;49.002930
77517;BME280;68414;53.946;27.634;2023-06-10T02:11:57;99259.789062;;;14.840000;48.450195
77517;BME280;68414;53.946;27.634;2023-06-10T02:12:57;99257.437500;;;14.860000;48.837891
77517;BME280;68414;53.946;27.634;2023-06-10T02:13:57;99258.328125;;;14.900000;48.292969
77517;BME280;68414;53.946;27.634;2023-06-10T02:14:57;99258.625000;;;14.850000;48.067383
77517;BME280;68414;53.946;27.634;2023-06-10T02:15:57;99264.218750;;;14.880000;48.917969
77517;BME280;68414;53.946;27.634;2023-06-10T02:16:57;99259.093750;;;14.900000;48.875977
77517;BME280;68414;53.946;27.634;2023-06-10T02:17:57;99258.328125;;;14.900000;48.127930
77517;BME280;68414;53.946;27.634;2023-06-10T02:18:57;99271.265625;;;14.820000;48.152344
77517;BME280;68414;53.946;27.634;2023-06-10T02:19:57;99272.000000;;;14.790000;47.883789
77517;BME280;68414;53.946;27.634;2023-06-10T02:20:57;99268.500000;;;14.820000;47.964844
77517;BME280;68414;53.946;27.634;2023-06-10T02:21:57;99282.671875;;;14.770000;48.333008
77517;BME280;68414;53.946;27.634;2023-06-10T02:22:57;99280.750000;;;14.810000;48.018555
77517;BME280;68414;53.946;27.634;2023-06-10T02:23:57;99279.164062;;;14.800000;47.985352
77517;BME280;68414;53.946;27.634;2023-06-10T02:24:57;99272.812500;;;14.800000;47.940430
77517;BME280;68414;53.946;27.634;2023-06-10T02:25:57;99282.750000;;;14.810000;48.271484
77517;BME280;68414;53.946;27.634;2023-06-10T02:26:57;99287.015625;;;14.750000;47.990234
77517;BME280;68414;53.946;27.634;2023-06-10T02:27:57;99286.078125;;;14.670000;48.124023
77517;BME280;68414;53.946;27.634;2023-06-10T02:28:57;99286.937500;;;14.710000;47.974609
77517;BME280;68414;53.946;27.634;2023-06-10T02:29:57;99284.593750;;;14.730000;48.857422
77517;BME280;68414;53.946;27.634;2023-06-10T02:30:57;99290.898438;;;14.700000;48.601562
77517;BME280;68414;53.946;27.634;2023-06-10T02:31:57;99289.531250;;;14.610000;47.797852
77517;BME280;68414;53.946;27.634;2023-06-10T02:32:57;99289.109375;;;14.590000;48.103516
77517;BME280;68414;53.946;27.634;2023-06-10T02:33:57;99288.296875;;;14.580000;48.048828
77517;BME280;68414;53.946;27.634;2023-06-10T02:34:57;99291.921875;;;14.620000;48.041992
77517;BME280;68414;53.946;27.634;2023-06-10T02:35:57;99297.046875;;;14.600000;48.259766
77517;BME280;68414;53.946;27.634;2023-06-10T02:36:57;99296.750000;;;14.650000;48.792969
77517;BME280;68414;53.946;27.634;2023-06-10T02:37:57;99293.546875;;;14.630000;47.921875
77517;BME280;68414;53.946;27.634;2023-06-10T02:38:57;99303.156250;;;14.690000;47.751953
77517;BME280;68414;53.946;27.634;2023-06-10T02:39:57;99294.015625;;;14.690000;47.652344
77517;BME280;68414;53.946;27.634;2023-06-10T02:40:57;99296.492188;;;14.740000;47.911133
77517;BME280;68414;53.946;27.634;2023-06-10T02:41:57;99295.125000;;;14.640000;48.660156
77517;BME280;68414;53.946;27.634;2023-06-10T02:42:57;99294.828125;;;14.690000;48.180664
77517;BME280;68414;53.946;27.634;2023-06-10T02:43:57;99302.085938;;;14.770000;48.476562
77517;BME280;68414;53.946;27.634;2023-06-10T02:44:57;99294.953125;;;14.760000;48.200195
77517;BME280;68414;53.946;27.634;2023-06-10T02:45:57;99299.265625;;;14.740000;47.790039
77517;BME280;68414;53.946;27.634;2023-06-10T02:46:57;99295.257812;;;14.710000;47.765625
77517;BME280;68414;53.946;27.634;2023-06-10T02:47:57;99298.539062;;;14.770000;48.124023
77517;BME280;68414;53.946;27.634;2023-06-10T02:48:57;99302.640625;;;14.860000;48.333008
77517;BME280;68414;53.946;27.634;2023-06-10T02:49:57;99301.054688;;;14.850000;47.516602
77517;BME280;68414;53.946;27.634;2023-06-10T02:50:57;99305.031250;;;14.880000;48.322266
77517;BME280;68414;53.946;27.634;2023-06-10T02:51:57;99307.335938;;;14.820000;47.513672
77517;BME280;68414;53.946;27.634;2023-06-10T02:52:57;99311.515625;;;14.730000;47.811523
77517;BME280;68414;53.946;27.634;2023-06-10T02:53:57;99301.007812;;;14.590000;47.510742
77517;BME280;68414;53.946;27.634;2023-06-10T02:54:57;99303.265625;;;14.540000;47.944336
77517;BME280;68414;53.946;27.634;2023-06-10T02:55:57;99301.359375;;;14.580000;47.860352
77517;BME280;68414;53.946;27.634;2023-06-10T02:56:57;99295.812500;;;14.580000;47.937500
77517;BME280;68414;53.946;27.634;2023-06-10T02:57:57;99310.609375;;;14.650000;47.769531
77517;BME280;68414;53.946;27.634;2023-06-10T02:58:57;99295.625000;;;14.470000;47.871094
77517;BME280;68414;53.946;27.634;2023-06-10T02:59:57;99300.875000;;;14.520000;48.625977
77517;BME280;68414;53.946;27.634;2023-06-10T03:00:57;99296.140625;;;14.530000;47.899414
77517;BME280;68414;53.946;27.634;2023-06-10T03:01:57;99305.359375;;;14.600000;47.929688
77517;BME280;68414;53.946;27.634;2023-06-10T03:02:57;99296.140625;;;14.530000;48.120117
77517;BME280;68414;53.946;27.634;2023-06-10T03:03:57;99296.234375;;;14.600000;47.983398
77517;BME280;68414;53.946;27.634;2023-06-10T03:04:57;99301.007812;;;14.590000;48.313477
77517;BME280;68414;53.946;27.634;2023-06-10T03:05:57;99306.367188;;;14.490000;48.642578
77517;BME280;68414;53.946;27.634;2023-06-10T03:06:57;99302.460938;;;14.530000;48.317383
77517;BME280;68414;53.946;27.634;2023-06-10T03:07:57;99302.921875;;;14.550000;48.209961
77517;BME280;68414;53.946;27.634;2023-06-10T03:08:57;99302.164062;;;14.580000;48.598633
77517;BME280;68414;53.946;27.634;2023-06-10T03:09:57;99301.125000;;;14.430000;47.801758
77517;BME280;68414;53.946;27.634;2023-06-10T03:10:57;99300.445312;;;14.500000;48.249023
77517;BME280;68414;53.946;27.634;2023-06-10T03:11:57;99303.648438;;;14.520000;48.383789
77517;BME280;68414;53.946;27.634;2023-06-10T03:12:57;99309.140625;;;14.490000;48.158203
77517;BME280;68414;53.946;27.634;2023-06-10T03:13:57;99292.421875;;;14.450000;48.012695
77517;BME280;68414;53.946;27.634;2023-06-10T03:14:57;99297.671875;;;14.500000;47.775391
77517;BME280;68414;53.946;27.634;2023-06-10T03:15:57;99301.601562;;;14.490000;48.049805
77517;BME280;68414;53.946;27.634;2023-06-10T03:16:57;99294.039062;;;14.460000;48.255859
77517;BME280;68414;53.946;27.634;2023-06-10T03:17:57;99296.914062;;;14.530000;48.009766
77517;BME280;68414;53.946;27.634;2023-06-10T03:18:57;99302.460938;;;14.530000;47.910156
77517;BME280;68414;53.946;27.634;2023-06-10T03:19:57;99297.296875;;;14.520000;47.624023
77517;BME280;68414;53.946;27.634;2023-06-10T03:20:57;99297.242188;;;14.480000;47.509766
77517;BME280;68414;53.946;27.634;2023-06-10T03:22:57;99303.515625;;;14.450000;47.803711
77517;BME280;68414;53.946;27.634;2023-06-10T03:23:57;99301.601562;;;14.490000;47.477539
77517;BME280;68414;53.946;27.634;2023-06-10T03:24:57;99306.421875;;;14.520000;47.558594
77517;BME280;68414;53.946;27.634;2023-06-10T03:25:57;99303.078125;;;14.430000;47.603516
77517;BME280;68414;53.946;27.634;2023-06-10T03:26:57;99305.992188;;;14.500000;48.215820
77517;BME280;68414;53.946;27.634;2023-06-10T03:27:57;99312.828125;;;14.560000;47.716797
77517;BME280;68414;53.946;27.634;2023-06-10T03:28:57;99303.023438;;;14.620000;48.823242
77517;BME280;68414;53.946;27.634;2023-06-10T03:29:58;99314.062500;;;14.590000;48.851562
77517;BME280;68414;53.946;27.634;2023-06-10T03:30:57;99306.718750;;;14.470000;47.552734
77517;BME280;68414;53.946;27.634;2023-06-10T03:31:57;99314.312500;;;14.500000;47.434570
77517;BME280;68414;53.946;27.634;2023-06-10T03:32:57;99317.375000;;;14.450000;47.308594
77517;BME280;68414;53.946;27.634;2023-06-10T03:33:57;99318.046875;;;14.380000;47.653320
77517;BME280;68414;53.946;27.634;2023-06-10T03:34:57;99314.984375;;;14.430000;47.988281
77517;BME280;68414;53.946;27.634;2023-06-10T03:35:57;99312.210938;;;14.430000;47.878906
77517;BME280;68414;53.946;27.634;2023-06-10T03:36:57;99319.484375;;;14.520000;47.667969
77517;BME280;68414;53.946;27.634;2023-06-10T03:37:57;99316.953125;;;14.430000;47.933594
77517;BME280;68414;53.946;27.634;2023-06-10T03:38:57;99311.484375;;;14.470000;47.463867
77517;BME280;68414;53.946;27.634;2023-06-10T03:39:58;99321.765625;;;14.460000;47.320312
77517;BME280;68414;53.946;27.634;2023-06-10T03:40:57;99309.867188;;;14.460000;47.319336
77517;BME280;68414;53.946;27.634;2023-06-10T03:41:57;99310.000000;;;14.530000;48.086914
77517;BME280;68414;53.946;27.634;2023-06-10T03:42:57;99322.250000;;;14.520000;47.755859
77517;BME280;68414;53.946;27.634;2023-06-10T03:43:57;99313.875000;;;14.480000;47.069336
77517;BME280;68414;53.946;27.634;2023-06-10T03:44:57;99314.734375;;;14.520000;47.261719
77517;BME280;68414;53.946;27.634;2023-06-10T03:45:57;99314.734375;;;14.520000;47.151367
77517;BME280;68414;53.946;27.634;2023-06-10T03:46:57;99323.492188;;;14.540000;47.593750
77517;BME280;68414;53.946;27.634;2023-06-10T03:47:57;99318.125000;;;14.650000;47.416992
77517;BME280;68414;53.946;27.634;2023-06-10T03:48:58;99314.250000;;;14.690000;47.167969
77517;BME280;68414;53.946;27.634;2023-06-10T03:49:57;99312.578125;;;14.650000;47.130859
77517;BME280;68414;53.946;27.634;2023-06-10T03:50:57;99323.804688;;;14.720000;47.248047
77517;BME280;68414;53.946;27.634;2023-06-10T03:51:57;99321.890625;;;14.760000;47.661133
77517;BME280;68414;53.946;27.634;2023-06-10T03:52:57;99320.351562;;;14.780000;47.145508
77517;BME280;68414;53.946;27.634;2023-06-10T03:53:57;99315.656250;;;14.820000;46.929688
77517;BME280;68414;53.946;27.634;2023-06-10T03:54:57;99322.062500;;;14.860000;46.747070
77517;BME280;68414;53.946;27.634;2023-06-10T03:55:57;99317.953125;;;14.770000;46.737305
77517;BME280;68414;53.946;27.634;2023-06-10T03:56:57;99315.906250;;;14.740000;46.875977
77517;BME280;68414;53.946;27.634;2023-06-10T03:57:57;99318.687500;;;14.740000;47.833984
77517;BME280;68414;53.946;27.634;2023-06-10T03:58:58;99322.187500;;;14.710000;47.578125
77517;BME280;68414;53.946;27.634;2023-06-10T03:59:57;99312.328125;;;14.730000;47.228516
77517;BME280;68414;53.946;27.634;2023-06-10T04:00:57;99313.945312;;;14.740000;47.416992
77517;BME280;68414;53.946;27.634;2023-06-10T04:01:57;99319.156250;;;14.790000;47.432617
77517;BME280;68414;53.946;27.634;2023-06-10T04:02:57;99313.992188;;;14.780000;47.982422
77517;BME280;68414;53.946;27.634;2023-06-10T04:03:57;99320.476562;;;14.850000;47.648438
77517;BME280;68414;53.946;27.634;2023-06-10T04:04:57;99320.296875;;;14.750000;46.955078
77517;BME280;68414;53.946;27.634;2023-06-10T04:05:57;99318.640625;;;14.700000;47.060547
77517;BME280;68414;53.946;27.634;2023-06-10T04:06:57;99313.140625;;;14.740000;47.272461
77517;BME280;68414;53.946;27.634;2023-06-10T04:07:57;99321.406250;;;14.700000;47.258789
77517;BME280;68414;53.946;27.634;2023-06-10T04:08:57;99322.312500;;;14.780000;47.531250
77517;BME280;68414;53.946;27.634;2023-06-10T04:09:57;99319.593750;;;14.810000;47.192383
77517;BME280;68414;53.946;27.634;2023-06-10T04:10:57;99320.351562;;;14.780000;47.244141
77517;BME280;68414;53.946;27.634;2023-06-10T04:11:57;99318.257812;;;14.720000;47.116211
77517;BME280;68414;53.946;27.634;2023-06-10T04:12:57;99316.085938;;;14.840000;47.064453
77517;BME280;68414;53.946;27.634;2023-06-10T04:13:57;99316.937500;;;14.880000;47.673828
77517;BME280;68414;53.946;27.634;2023-06-10T04:14:57;99312.625000;;;14.910000;47.214844
77517;BME280;68414;53.946;27.634;2023-06-10T04:15:57;99328.546875;;;14.940000;47.140625
77517;BME280;68414;53.946;27.634;2023-06-10T04:16:57;99322.609375;;;14.950000;46.833008
77517;BME280;68414;53.946;27.634;2023-06-10T04:17:56;99320.687500;;;14.990000;46.540039
77517;BME280;68414;53.946;27.634;2023-06-10T04:18:58;99329.875000;;;15.030000;46.556641
77517;BME280;68414;53.946;27.634;2023-06-10T04:19:57;99320.523438;;;14.890000;46.650391
77517;BME280;68414;53.946;27.634;2023-06-10T04:20:56;99324.578125;;;14.950000;47.571289
77517;BME280;68414;53.946;27.634;2023-06-10T04:21:56;99323.296875;;;14.890000;46.760742
77517;BME280;68414;53.946;27.634;2023-06-10T04:22:57;99321.757812;;;14.910000;47.269531
77517;BME280;68414;53.946;27.634;2023-06-10T04:23:57;99321.000000;;;14.940000;47.559570
77517;BME280;68414;53.946;27.634;2023-06-10T04:24:58;99321.375000;;;14.930000;46.885742
77517;BME280;68414;53.946;27.634;2023-06-10T04:25:57;99326.453125;;;14.870000;46.736328
77517;BME280;68414;53.946;27.634;2023-06-10T04:26:57;99317.328125;;;14.870000;46.979492
77517;BME280;68414;53.946;27.634;2023-06-10T04:27:57;99320.351562;;;14.780000;47.277344
77517;BME280;68414;53.946;27.634;2023-06-10T04:28:57;99324.359375;;;14.810000;47.269531
77517;BME280;68414;53.946;27.634;2023-06-10T04:29:57;99331.148438;;;14.830000;47.337891
77517;BME280;68414;53.946;27.634;2023-06-10T04:30:56;99326.453125;;;14.870000;47.672852
77517;BME280;68414;53.946;27.634;2023-06-10T04:31:58;99329.656250;;;14.890000;47.355469
77517;BME280;68414;53.946;27.634;2023-06-10T04:32:57;99323.039062;;;14.970000;47.088867
77517;BME280;68414;53.946;27.634;2023-06-10T04:33:56;99333.078125;;;15.050000;47.374023
77517;BME280;68414;53.946;27.634;2023-06-10T04:34:56;99330.562500;;;14.970000;47.154297
77517;BME280;68414;53.946;27.634;2023-06-10T04:35:56;99324.531250;;;14.910000;47.445312
77517;BME280;68414;53.946;27.634;2023-06-10T04:36:56;99333.031250;;;15.020000;47.820312
77517;BME280;68414;53.946;27.634;2023-06-10T04:37:57;99330.296875;;;15.050000;47.516602
77517;BME280;68414;53.946;27.634;2023-06-10T04:38:57;99336.820312;;;15.160000;47.616211
77517;BME280;68414;53.946;27.634;2023-06-10T04:39:57;99322.515625;;;15.140000;47.018555